Accueil
METAR-TAF:

METAR-TAF

Aéroports :

Grande Canarie, Espagne

Aéroport de Gran Canaria

latitude: 27-56N, longitude: 015-23W, altitude: 23 m

Observation

Le bulletin a été fait il y a 18 minutes, à 02:00 UTC
Vent 9 kt de nord/nord-est
Température 20°C
Humidité 60%
Pression 1017 hPa
Visibilité 10 km ou plus
Quelques nuages à une hauteur de 3000 ft
Nuages épars à une hauteur de 3500 ft

METAR: GCLP 240200Z 02009KT 9999 FEW030 SCT035 20/12 Q1017 NOSIG

Heure: 03:18 (02:18 UTC)

Prévision

Le bulletin a été fait il y a 6 heures et 18 minutes, à 20:00 UTC
Prévision valable du 23 à 21 UTC au 24 à 21 UTC
Vent 22 kt de nord/nord-est
Visibilité 10 km ou plus
Quelques nuages à une hauteur de 3000 ft
Nuages épars à une hauteur de 3500 ft
Temporairement
du 23 à 23 UTC au 24 à 08 UTC
Vent 15 kt de nord/nord-ouest

TAF: GCLP 232000Z 2321/2421 03022KT 9999 FEW030 SCT035 TX25/2413Z TN19/2406Z TEMPO 2323/2408 33015KT

Observations et prévisions météorologiques de plus de 4000 aéroports (messages METAR et TAF).

Les stations disponibles sont représentées par des disques jaunes et rouges sur la carte.

Passer la souris dessus pour voir le nom de la station.

Cliquer dessus pour voir les observations et prévisions météorologiques.

Pour changer de carte: cliquez sur les boutons verts avec une croix noire pour zoomer, sur le bouton vert avec un tiret pour effectuer un zoom arrière, ou sur les flèches vertes pour les cartes adjacentes.


METAR-TAF: